Main page
METAR-TAF:

METAR-TAF

Airports :

Málaga Airport

Málaga, Spain

latitude: 36-40N, longitude: 004-29W, elevation: 16 m

Current weather observation

The report was made 36 minutes ago, at 18:30 UTC
Wind 8 kt from the West
Temperature 12°C
Humidity 50%
Pressure 1018 hPa
Visibility 10 km or more
Few clouds at a height of 6000 ft

METAR: LEMG 181830Z 28008KT 9999 FEW060 12/02 Q1018 NOSIG

Time: 20:06 (19:06 UTC)

Forecast

The report was made 2 hours and 6 minutes ago, at 17:00 UTC
Forecast valid from 18 at 18 UTC to 19 at 18 UTC
Wind 9 kt from the West
Visibility 10 km or more
Few clouds at a height of 4000 ft
Scattered clouds at a height of 6500 ft

TAF: LEMG 181700Z 1818/1918 28009KT 9999 FEW040 SCT065 TX16/1914Z TN08/1906Z

Weather observations and forecasts of more than 4000 airports (METAR and TAF reports).

The available stations are represented by yellow and red dots on the map.

Hover mouse over dot to see the name of the station.

Then click to see weather observations and forecasts.

To change the map : click on the green buttons with a black cross to zoom in, on the green button with a dash to zoom out, or on the green arrows for adjacent maps.


METAR-TAF: